sensor_id;sensor_type;location;lat;lon;timestamp;temperature;humidity
15257;DHT22;7731;50.720;6.912;2023-08-31T00:01:01;13.60;99.90
15257;DHT22;7731;50.720;6.912;2023-08-31T00:03:32;13.60;99.90
15257;DHT22;7731;50.720;6.912;2023-08-31T00:06:03;13.50;99.90
15257;DHT22;7731;50.720;6.912;2023-08-31T00:08:36;13.50;99.90
15257;DHT22;7731;50.720;6.912;2023-08-31T00:11:06;13.50;99.90
15257;DHT22;7731;50.720;6.912;2023-08-31T00:13:37;13.50;99.90
15257;DHT22;7731;50.720;6.912;2023-08-31T00:16:09;13.50;99.90
15257;DHT22;7731;50.720;6.912;2023-08-31T00:18:41;13.60;99.90
15257;DHT22;7731;50.720;6.912;2023-08-31T00:21:12;13.60;99.90
15257;DHT22;7731;50.720;6.912;2023-08-31T00:23:42;13.70;99.90
15257;DHT22;7731;50.720;6.912;2023-08-31T00:26:12;13.80;99.90
15257;DHT22;7731;50.720;6.912;2023-08-31T00:28:45;13.80;99.90
15257;DHT22;7731;50.720;6.912;2023-08-31T00:31:18;13.80;99.90
15257;DHT22;7731;50.720;6.912;2023-08-31T00:33:48;13.70;99.90
15257;DHT22;7731;50.720;6.912;2023-08-31T00:36:21;13.70;99.90
15257;DHT22;7731;50.720;6.912;2023-08-31T00:38:52;13.80;99.90
15257;DHT22;7731;50.720;6.912;2023-08-31T00:41:22;13.70;99.90
15257;DHT22;7731;50.720;6.912;2023-08-31T00:43:53;13.70;99.90
15257;DHT22;7731;50.720;6.912;2023-08-31T00:46:26;13.70;99.90
15257;DHT22;7731;50.720;6.912;2023-08-31T00:48:58;13.70;99.90
15257;DHT22;7731;50.720;6.912;2023-08-31T00:51:31;13.70;99.90
15257;DHT22;7731;50.720;6.912;2023-08-31T00:54:01;13.70;99.90
15257;DHT22;7731;50.720;6.912;2023-08-31T00:56:33;13.70;99.90
15257;DHT22;7731;50.720;6.912;2023-08-31T00:59:03;13.70;99.90
15257;DHT22;7731;50.720;6.912;2023-08-31T01:01:37;13.70;99.90
15257;DHT22;7731;50.720;6.912;2023-08-31T01:04:18;13.70;99.90
15257;DHT22;7731;50.720;6.912;2023-08-31T01:07:01;13.60;99.90
15257;DHT22;7731;50.720;6.912;2023-08-31T01:09:48;13.60;99.90
15257;DHT22;7731;50.720;6.912;2023-08-31T01:12:29;13.60;99.90
15257;DHT22;7731;50.720;6.912;2023-08-31T01:15:11;13.60;99.90
15257;DHT22;7731;50.720;6.912;2023-08-31T01:17:47;13.70;99.90
15257;DHT22;7731;50.720;6.912;2023-08-31T01:20:28;13.60;99.90
15257;DHT22;7731;50.720;6.912;2023-08-31T01:23:08;13.70;99.90
15257;DHT22;7731;50.720;6.912;2023-08-31T01:25:44;13.70;99.90
15257;DHT22;7731;50.720;6.912;2023-08-31T01:28:16;13.70;99.90
15257;DHT22;7731;50.720;6.912;2023-08-31T01:30:46;13.70;99.90
15257;DHT22;7731;50.720;6.912;2023-08-31T01:33:16;13.70;99.90
15257;DHT22;7731;50.720;6.912;2023-08-31T01:35:50;13.70;99.90
15257;DHT22;7731;50.720;6.912;2023-08-31T01:38:27;13.70;99.90
15257;DHT22;7731;50.720;6.912;2023-08-31T01:41:05;13.60;99.90
15257;DHT22;7731;50.720;6.912;2023-08-31T01:43:40;13.60;99.90
15257;DHT22;7731;50.720;6.912;2023-08-31T01:46:14;13.50;99.90
15257;DHT22;7731;50.720;6.912;2023-08-31T01:48:45;13.50;99.90
15257;DHT22;7731;50.720;6.912;2023-08-31T01:51:18;13.50;99.90
15257;DHT22;7731;50.720;6.912;2023-08-31T01:53:50;13.50;99.90
15257;DHT22;7731;50.720;6.912;2023-08-31T01:56:23;13.40;99.90
15257;DHT22;7731;50.720;6.912;2023-08-31T01:58:53;13.30;99.90
15257;DHT22;7731;50.720;6.912;2023-08-31T02:01:24;13.30;99.90
15257;DHT22;7731;50.720;6.912;2023-08-31T02:03:54;13.20;99.90
15257;DHT22;7731;50.720;6.912;2023-08-31T02:06:24;13.10;99.90
15257;DHT22;7731;50.720;6.912;2023-08-31T02:08:55;13.00;99.90
15257;DHT22;7731;50.720;6.912;2023-08-31T02:11:27;13.00;99.90
15257;DHT22;7731;50.720;6.912;2023-08-31T02:13:58;13.00;99.90
15257;DHT22;7731;50.720;6.912;2023-08-31T02:16:30;12.90;99.90
15257;DHT22;7731;50.720;6.912;2023-08-31T02:19:01;12.90;99.90
15257;DHT22;7731;50.720;6.912;2023-08-31T02:21:31;12.80;99.90
15257;DHT22;7731;50.720;6.912;2023-08-31T02:24:01;12.80;99.90
15257;DHT22;7731;50.720;6.912;2023-08-31T02:26:35;12.80;99.90
15257;DHT22;7731;50.720;6.912;2023-08-31T02:29:06;12.70;99.90
15257;DHT22;7731;50.720;6.912;2023-08-31T02:31:37;12.70;99.90
15257;DHT22;7731;50.720;6.912;2023-08-31T02:34:08;12.70;99.90
15257;DHT22;7731;50.720;6.912;2023-08-31T02:36:39;12.80;99.90
15257;DHT22;7731;50.720;6.912;2023-08-31T02:39:09;12.90;99.90
15257;DHT22;7731;50.720;6.912;2023-08-31T02:41:42;12.80;99.90
15257;DHT22;7731;50.720;6.912;2023-08-31T02:44:12;12.70;99.90
15257;DHT22;7731;50.720;6.912;2023-08-31T02:46:42;12.60;99.90
15257;DHT22;7731;50.720;6.912;2023-08-31T02:49:13;12.50;99.90
15257;DHT22;7731;50.720;6.912;2023-08-31T02:51:43;12.40;99.90
15257;DHT22;7731;50.720;6.912;2023-08-31T02:54:17;12.30;99.90
15257;DHT22;7731;50.720;6.912;2023-08-31T02:56:50;12.30;99.90
15257;DHT22;7731;50.720;6.912;2023-08-31T02:59:20;12.20;99.90
15257;DHT22;7731;50.720;6.912;2023-08-31T03:01:50;12.20;99.90
15257;DHT22;7731;50.720;6.912;2023-08-31T03:04:24;12.20;99.90
15257;DHT22;7731;50.720;6.912;2023-08-31T03:06:54;12.20;99.90
15257;DHT22;7731;50.720;6.912;2023-08-31T03:09:24;12.20;99.90
15257;DHT22;7731;50.720;6.912;2023-08-31T03:11:57;12.10;99.90
15257;DHT22;7731;50.720;6.912;2023-08-31T03:14:27;12.10;99.90
15257;DHT22;7731;50.720;6.912;2023-08-31T03:16:58;12.10;99.90
15257;DHT22;7731;50.720;6.912;2023-08-31T03:19:28;12.00;99.90
15257;DHT22;7731;50.720;6.912;2023-08-31T03:21:58;12.00;99.90
15257;DHT22;7731;50.720;6.912;2023-08-31T03:24:28;12.00;99.90
15257;DHT22;7731;50.720;6.912;2023-08-31T03:27:05;11.90;99.90
15257;DHT22;7731;50.720;6.912;2023-08-31T03:29:35;12.00;99.90
15257;DHT22;7731;50.720;6.912;2023-08-31T03:32:07;11.90;99.90
15257;DHT22;7731;50.720;6.912;2023-08-31T03:34:38;12.00;99.90
15257;DHT22;7731;50.720;6.912;2023-08-31T03:37:08;12.00;99.90
15257;DHT22;7731;50.720;6.912;2023-08-31T03:39:38;12.00;99.90
15257;DHT22;7731;50.720;6.912;2023-08-31T03:42:13;12.10;99.90
15257;DHT22;7731;50.720;6.912;2023-08-31T03:44:43;12.20;99.90
15257;DHT22;7731;50.720;6.912;2023-08-31T03:47:13;12.20;99.90
15257;DHT22;7731;50.720;6.912;2023-08-31T03:49:44;12.30;99.90
15257;DHT22;7731;50.720;6.912;2023-08-31T03:52:14;12.50;99.90
15257;DHT22;7731;50.720;6.912;2023-08-31T03:54:44;12.50;99.90
15257;DHT22;7731;50.720;6.912;2023-08-31T03:57:17;12.60;99.90
15257;DHT22;7731;50.720;6.912;2023-08-31T03:59:48;12.70;99.90
15257;DHT22;7731;50.720;6.912;2023-08-31T04:02:21;12.70;99.90
15257;DHT22;7731;50.720;6.912;2023-08-31T04:04:51;12.60;99.90
15257;DHT22;7731;50.720;6.912;2023-08-31T04:07:21;12.40;99.90
15257;DHT22;7731;50.720;6.912;2023-08-31T04:09:52;12.20;99.90
15257;DHT22;7731;50.720;6.912;2023-08-31T04:12:26;12.20;99.90
15257;DHT22;7731;50.720;6.912;2023-08-31T04:14:57;12.20;99.90
15257;DHT22;7731;50.720;6.912;2023-08-31T04:17:30;12.20;99.90
15257;DHT22;7731;50.720;6.912;2023-08-31T04:20:00;12.20;99.90
15257;DHT22;7731;50.720;6.912;2023-08-31T04:22:32;12.10;99.90
15257;DHT22;7731;50.720;6.912;2023-08-31T04:25:03;12.10;99.90
15257;DHT22;7731;50.720;6.912;2023-08-31T04:27:37;12.20;99.90
15257;DHT22;7731;50.720;6.912;2023-08-31T04:30:10;12.20;99.90
15257;DHT22;7731;50.720;6.912;2023-08-31T04:32:44;12.30;99.90
15257;DHT22;7731;50.720;6.912;2023-08-31T04:35:15;12.20;99.90
15257;DHT22;7731;50.720;6.912;2023-08-31T04:37:45;12.20;99.90
15257;DHT22;7731;50.720;6.912;2023-08-31T04:40:23;12.20;99.90
15257;DHT22;7731;50.720;6.912;2023-08-31T04:42:56;12.10;99.90
15257;DHT22;7731;50.720;6.912;2023-08-31T04:45:27;12.00;99.90
15257;DHT22;7731;50.720;6.912;2023-08-31T04:47:57;12.00;99.90
15257;DHT22;7731;50.720;6.912;2023-08-31T04:50:28;11.90;99.90
15257;DHT22;7731;50.720;6.912;2023-08-31T04:52:58;11.90;99.90
15257;DHT22;7731;50.720;6.912;2023-08-31T04:55:29;11.80;99.90
15257;DHT22;7731;50.720;6.912;2023-08-31T04:58:02;11.80;99.90
15257;DHT22;7731;50.720;6.912;2023-08-31T05:00:32;11.80;99.90
15257;DHT22;7731;50.720;6.912;2023-08-31T05:03:03;11.70;99.90
15257;DHT22;7731;50.720;6.912;2023-08-31T05:05:34;11.80;99.90
15257;DHT22;7731;50.720;6.912;2023-08-31T05:08:08;11.80;99.90
15257;DHT22;7731;50.720;6.912;2023-08-31T05:10:38;11.80;99.90
15257;DHT22;7731;50.720;6.912;2023-08-31T05:13:11;11.80;99.90
15257;DHT22;7731;50.720;6.912;2023-08-31T05:15:41;11.80;99.90
15257;DHT22;7731;50.720;6.912;2023-08-31T05:18:12;11.80;99.90
15257;DHT22;7731;50.720;6.912;2023-08-31T05:20:45;11.80;99.90
15257;DHT22;7731;50.720;6.912;2023-08-31T05:23:15;11.80;99.90
15257;DHT22;7731;50.720;6.912;2023-08-31T05:25:46;11.90;99.90
15257;DHT22;7731;50.720;6.912;2023-08-31T05:28:19;11.90;99.90
15257;DHT22;7731;50.720;6.912;2023-08-31T05:30:50;11.90;99.90
15257;DHT22;7731;50.720;6.912;2023-08-31T05:33:21;12.00;99.90
15257;DHT22;7731;50.720;6.912;2023-08-31T05:35:52;12.00;99.90
15257;DHT22;7731;50.720;6.912;2023-08-31T05:38:23;12.20;99.90
15257;DHT22;7731;50.720;6.912;2023-08-31T05:40:53;12.20;99.90
15257;DHT22;7731;50.720;6.912;2023-08-31T05:43:26;12.30;99.90
15257;DHT22;7731;50.720;6.912;2023-08-31T05:45:56;12.40;99.90
15257;DHT22;7731;50.720;6.912;2023-08-31T05:48:27;12.40;99.90
15257;DHT22;7731;50.720;6.912;2023-08-31T05:50:57;12.60;99.90
15257;DHT22;7731;50.720;6.912;2023-08-31T05:53:27;12.70;99.90
15257;DHT22;7731;50.720;6.912;2023-08-31T05:55:58;12.80;99.90
15257;DHT22;7731;50.720;6.912;2023-08-31T05:58:37;13.10;99.90
15257;DHT22;7731;50.720;6.912;2023-08-31T06:01:07;13.20;99.90
15257;DHT22;7731;50.720;6.912;2023-08-31T06:03:37;13.20;99.90
15257;DHT22;7731;50.720;6.912;2023-08-31T06:06:07;13.30;99.90
15257;DHT22;7731;50.720;6.912;2023-08-31T06:08:38;13.30;99.90
15257;DHT22;7731;50.720;6.912;2023-08-31T06:11:10;13.40;99.90
15257;DHT22;7731;50.720;6.912;2023-08-31T06:13:43;13.50;99.90
15257;DHT22;7731;50.720;6.912;2023-08-31T06:16:13;13.60;99.90
15257;DHT22;7731;50.720;6.912;2023-08-31T06:18:44;13.60;99.90
15257;DHT22;7731;50.720;6.912;2023-08-31T06:21:14;13.70;99.90
15257;DHT22;7731;50.720;6.912;2023-08-31T06:23:44;13.80;99.90
15257;DHT22;7731;50.720;6.912;2023-08-31T06:26:14;13.90;99.90
15257;DHT22;7731;50.720;6.912;2023-08-31T06:28:47;14.00;99.90
15257;DHT22;7731;50.720;6.912;2023-08-31T06:31:17;14.10;99.90
15257;DHT22;7731;50.720;6.912;2023-08-31T06:33:48;14.20;99.90
15257;DHT22;7731;50.720;6.912;2023-08-31T06:36:18;14.40;99.90
15257;DHT22;7731;50.720;6.912;2023-08-31T06:38:49;14.40;99.90
15257;DHT22;7731;50.720;6.912;2023-08-31T06:41:19;14.50;99.90
15257;DHT22;7731;50.720;6.912;2023-08-31T06:43:52;14.60;99.90
15257;DHT22;7731;50.720;6.912;2023-08-31T06:46:22;14.80;99.90
15257;DHT22;7731;50.720;6.912;2023-08-31T06:48:53;14.90;99.90
15257;DHT22;7731;50.720;6.912;2023-08-31T06:51:23;15.20;99.90
15257;DHT22;7731;50.720;6.912;2023-08-31T06:53:53;15.30;99.90
15257;DHT22;7731;50.720;6.912;2023-08-31T06:56:29;15.40;99.90
15257;DHT22;7731;50.720;6.912;2023-08-31T06:59:02;15.50;99.90
15257;DHT22;7731;50.720;6.912;2023-08-31T07:01:33;15.70;99.90
15257;DHT22;7731;50.720;6.912;2023-08-31T07:04:04;15.90;99.90
15257;DHT22;7731;50.720;6.912;2023-08-31T07:06:35;16.20;99.90
15257;DHT22;7731;50.720;6.912;2023-08-31T07:09:06;16.10;99.90
15257;DHT22;7731;50.720;6.912;2023-08-31T07:11:37;16.20;99.90
15257;DHT22;7731;50.720;6.912;2023-08-31T07:14:10;16.40;99.90
15257;DHT22;7731;50.720;6.912;2023-08-31T07:16:40;16.60;99.90
15257;DHT22;7731;50.720;6.912;2023-08-31T07:19:10;16.80;99.90
15257;DHT22;7731;50.720;6.912;2023-08-31T07:21:41;17.20;99.90
15257;DHT22;7731;50.720;6.912;2023-08-31T07:24:11;18.80;99.90
15257;DHT22;7731;50.720;6.912;2023-08-31T07:26:44;21.30;1.00
15257;DHT22;7731;50.720;6.912;2023-08-31T07:29:18;23.60;99.90
15257;DHT22;7731;50.720;6.912;2023-08-31T07:31:48;25.10;99.90
15257;DHT22;7731;50.720;6.912;2023-08-31T07:34:19;26.90;8.40
15257;DHT22;7731;50.720;6.912;2023-08-31T07:36:49;27.40;99.90
15257;DHT22;7731;50.720;6.912;2023-08-31T07:39:20;26.00;99.90
15257;DHT22;7731;50.720;6.912;2023-08-31T07:41:50;25.60;99.90
15257;DHT22;7731;50.720;6.912;2023-08-31T07:44:24;25.20;1.00
15257;DHT22;7731;50.720;6.912;2023-08-31T07:46:54;24.40;1.00
15257;DHT22;7731;50.720;6.912;2023-08-31T07:49:25;24.60;1.00
15257;DHT22;7731;50.720;6.912;2023-08-31T07:51:55;25.20;1.00
15257;DHT22;7731;50.720;6.912;2023-08-31T07:54:25;25.30;1.00
15257;DHT22;7731;50.720;6.912;2023-08-31T07:56:56;25.50;1.00
15257;DHT22;7731;50.720;6.912;2023-08-31T07:59:29;25.50;1.00
15257;DHT22;7731;50.720;6.912;2023-08-31T08:01:59;27.00;99.90
15257;DHT22;7731;50.720;6.912;2023-08-31T08:04:30;27.70;99.90
15257;DHT22;7731;50.720;6.912;2023-08-31T08:07:01;28.30;77.90
15257;DHT22;7731;50.720;6.912;2023-08-31T08:09:31;28.90;29.40
15257;DHT22;7731;50.720;6.912;2023-08-31T08:12:04;28.40;1.00
15257;DHT22;7731;50.720;6.912;2023-08-31T08:14:37;28.50;1.00
15257;DHT22;7731;50.720;6.912;2023-08-31T08:17:09;28.40;1.00
15257;DHT22;7731;50.720;6.912;2023-08-31T08:19:41;27.80;1.00
15257;DHT22;7731;50.720;6.912;2023-08-31T08:22:11;25.90;1.00
15257;DHT22;7731;50.720;6.912;2023-08-31T08:24:41;24.60;70.90
15257;DHT22;7731;50.720;6.912;2023-08-31T08:27:12;23.50;99.90
15257;DHT22;7731;50.720;6.912;2023-08-31T08:29:46;22.90;32.20
15257;DHT22;7731;50.720;6.912;2023-08-31T08:32:17;22.30;1.00
15257;DHT22;7731;50.720;6.912;2023-08-31T08:34:48;22.10;1.00
15257;DHT22;7731;50.720;6.912;2023-08-31T08:37:19;21.70;99.90
15257;DHT22;7731;50.720;6.912;2023-08-31T08:39:49;21.80;99.90
15257;DHT22;7731;50.720;6.912;2023-08-31T08:42:24;21.70;1.00
15257;DHT22;7731;50.720;6.912;2023-08-31T08:44:58;22.50;99.90
15257;DHT22;7731;50.720;6.912;2023-08-31T08:47:31;24.50;1.00
15257;DHT22;7731;50.720;6.912;2023-08-31T08:50:07;26.90;1.00
15257;DHT22;7731;50.720;6.912;2023-08-31T08:52:39;28.40;99.90
15257;DHT22;7731;50.720;6.912;2023-08-31T08:55:13;28.80;99.90
15257;DHT22;7731;50.720;6.912;2023-08-31T08:57:44;28.40;93.40
15257;DHT22;7731;50.720;6.912;2023-08-31T09:00:17;29.40;51.80
15257;DHT22;7731;50.720;6.912;2023-08-31T09:02:48;29.20;1.00
15257;DHT22;7731;50.720;6.912;2023-08-31T09:05:18;29.50;1.00
15257;DHT22;7731;50.720;6.912;2023-08-31T09:08:03;29.70;1.00
15257;DHT22;7731;50.720;6.912;2023-08-31T09:10:38;30.20;1.00
15257;DHT22;7731;50.720;6.912;2023-08-31T09:13:11;31.30;1.00
15257;DHT22;7731;50.720;6.912;2023-08-31T09:15:47;31.30;1.00
15257;DHT22;7731;50.720;6.912;2023-08-31T09:18:24;30.00;1.00
15257;DHT22;7731;50.720;6.912;2023-08-31T09:20:56;28.40;1.00
15257;DHT22;7731;50.720;6.912;2023-08-31T09:23:27;27.60;1.00
15257;DHT22;7731;50.720;6.912;2023-08-31T09:25:58;27.70;1.00
15257;DHT22;7731;50.720;6.912;2023-08-31T09:28:28;28.70;1.00
15257;DHT22;7731;50.720;6.912;2023-08-31T09:31:08;28.20;1.00
15257;DHT22;7731;50.720;6.912;2023-08-31T09:33:49;27.20;1.00
15257;DHT22;7731;50.720;6.912;2023-08-31T09:36:20;27.30;1.00
15257;DHT22;7731;50.720;6.912;2023-08-31T09:38:51;28.20;1.00
15257;DHT22;7731;50.720;6.912;2023-08-31T09:41:22;29.90;1.00
15257;DHT22;7731;50.720;6.912;2023-08-31T09:43:52;31.00;1.00
15257;DHT22;7731;50.720;6.912;2023-08-31T09:46:25;32.00;1.00
15257;DHT22;7731;50.720;6.912;2023-08-31T09:48:56;32.00;1.00
15257;DHT22;7731;50.720;6.912;2023-08-31T09:51:29;31.80;1.00
15257;DHT22;7731;50.720;6.912;2023-08-31T09:54:00;31.80;1.00
15257;DHT22;7731;50.720;6.912;2023-08-31T09:56:36;30.60;1.00
15257;DHT22;7731;50.720;6.912;2023-08-31T09:59:08;29.90;1.00
15257;DHT22;7731;50.720;6.912;2023-08-31T10:01:45;29.90;1.00
15257;DHT22;7731;50.720;6.912;2023-08-31T10:04:17;29.90;1.00
15257;DHT22;7731;50.720;6.912;2023-08-31T10:06:47;30.10;1.00
15257;DHT22;7731;50.720;6.912;2023-08-31T10:09:19;30.60;1.00
15257;DHT22;7731;50.720;6.912;2023-08-31T10:11:50;30.30;1.00
15257;DHT22;7731;50.720;6.912;2023-08-31T10:14:22;29.80;1.00
15257;DHT22;7731;50.720;6.912;2023-08-31T10:16:56;30.30;1.00
15257;DHT22;7731;50.720;6.912;2023-08-31T10:19:28;30.60;1.00
15257;DHT22;7731;50.720;6.912;2023-08-31T10:21:59;30.10;1.00
15257;DHT22;7731;50.720;6.912;2023-08-31T10:24:58;29.60;1.00
15257;DHT22;7731;50.720;6.912;2023-08-31T10:27:37;28.80;1.00
15257;DHT22;7731;50.720;6.912;2023-08-31T10:30:26;28.40;1.00
15257;DHT22;7731;50.720;6.912;2023-08-31T10:33:23;27.70;1.00
15257;DHT22;7731;50.720;6.912;2023-08-31T10:35:56;26.40;1.00
15257;DHT22;7731;50.720;6.912;2023-08-31T10:38:28;25.50;1.00
15257;DHT22;7731;50.720;6.912;2023-08-31T10:41:21;24.60;1.00
15257;DHT22;7731;50.720;6.912;2023-08-31T10:43:55;23.80;99.90
15257;DHT22;7731;50.720;6.912;2023-08-31T10:46:28;23.50;99.90
15257;DHT22;7731;50.720;6.912;2023-08-31T10:49:17;23.00;1.00
15257;DHT22;7731;50.720;6.912;2023-08-31T10:51:49;22.80;1.00
15257;DHT22;7731;50.720;6.912;2023-08-31T10:54:26;23.20;99.90
15257;DHT22;7731;50.720;6.912;2023-08-31T10:57:05;23.50;52.80
15257;DHT22;7731;50.720;6.912;2023-08-31T10:59:45;23.40;99.90
15257;DHT22;7731;50.720;6.912;2023-08-31T11:02:28;23.00;99.90
15257;DHT22;7731;50.720;6.912;2023-08-31T11:05:10;22.70;99.90
15257;DHT22;7731;50.720;6.912;2023-08-31T11:07:43;22.20;40.50
15257;DHT22;7731;50.720;6.912;2023-08-31T11:10:16;22.70;1.00
15257;DHT22;7731;50.720;6.912;2023-08-31T11:12:49;23.40;1.00
15257;DHT22;7731;50.720;6.912;2023-08-31T11:15:22;24.30;99.90
15257;DHT22;7731;50.720;6.912;2023-08-31T11:17:55;25.80;1.00
15257;DHT22;7731;50.720;6.912;2023-08-31T11:20:30;26.50;99.90
15257;DHT22;7731;50.720;6.912;2023-08-31T11:23:01;26.40;99.90
15257;DHT22;7731;50.720;6.912;2023-08-31T11:25:33;26.90;99.90
15257;DHT22;7731;50.720;6.912;2023-08-31T11:28:06;26.40;99.90
15257;DHT22;7731;50.720;6.912;2023-08-31T11:30:37;26.20;99.90
15257;DHT22;7731;50.720;6.912;2023-08-31T11:33:10;26.20;99.90
15257;DHT22;7731;50.720;6.912;2023-08-31T11:35:45;26.00;99.90
15257;DHT22;7731;50.720;6.912;2023-08-31T11:38:16;25.50;99.90
15257;DHT22;7731;50.720;6.912;2023-08-31T11:40:47;25.70;99.90
15257;DHT22;7731;50.720;6.912;2023-08-31T11:43:19;26.10;99.90
15257;DHT22;7731;50.720;6.912;2023-08-31T11:45:50;26.40;99.90
15257;DHT22;7731;50.720;6.912;2023-08-31T11:48:21;25.70;99.90
15257;DHT22;7731;50.720;6.912;2023-08-31T11:50:57;25.40;99.90
15257;DHT22;7731;50.720;6.912;2023-08-31T11:53:29;24.70;99.90
15257;DHT22;7731;50.720;6.912;2023-08-31T11:56:02;24.20;99.90
15257;DHT22;7731;50.720;6.912;2023-08-31T11:58:40;23.80;99.90
15257;DHT22;7731;50.720;6.912;2023-08-31T12:01:30;23.50;99.90
15257;DHT22;7731;50.720;6.912;2023-08-31T12:04:00;23.60;1.00
15257;DHT22;7731;50.720;6.912;2023-08-31T12:06:33;23.20;1.00
15257;DHT22;7731;50.720;6.912;2023-08-31T12:09:06;22.40;99.90
15257;DHT22;7731;50.720;6.912;2023-08-31T12:11:38;21.50;1.00
15257;DHT22;7731;50.720;6.912;2023-08-31T12:14:21;21.20;50.10
15257;DHT22;7731;50.720;6.912;2023-08-31T12:16:53;21.50;19.30
15257;DHT22;7731;50.720;6.912;2023-08-31T12:19:30;21.90;37.00
15257;DHT22;7731;50.720;6.912;2023-08-31T12:22:04;22.50;1.00
15257;DHT22;7731;50.720;6.912;2023-08-31T12:24:41;22.90;1.00
15257;DHT22;7731;50.720;6.912;2023-08-31T12:27:11;23.40;99.90
15257;DHT22;7731;50.720;6.912;2023-08-31T12:29:42;23.70;99.90
15257;DHT22;7731;50.720;6.912;2023-08-31T12:32:13;23.60;99.90
15257;DHT22;7731;50.720;6.912;2023-08-31T12:34:45;23.00;1.00
15257;DHT22;7731;50.720;6.912;2023-08-31T12:37:18;23.00;1.00
15257;DHT22;7731;50.720;6.912;2023-08-31T12:39:48;23.10;99.90
15257;DHT22;7731;50.720;6.912;2023-08-31T12:42:18;23.10;38.40
15257;DHT22;7731;50.720;6.912;2023-08-31T12:44:50;23.00;41.80
15257;DHT22;7731;50.720;6.912;2023-08-31T12:47:20;22.90;1.00
15257;DHT22;7731;50.720;6.912;2023-08-31T12:49:51;22.00;1.00
15257;DHT22;7731;50.720;6.912;2023-08-31T12:52:24;21.80;99.90
15257;DHT22;7731;50.720;6.912;2023-08-31T12:54:54;21.50;1.00
15257;DHT22;7731;50.720;6.912;2023-08-31T12:57:24;21.60;1.00
15257;DHT22;7731;50.720;6.912;2023-08-31T12:59:55;21.60;99.90
15257;DHT22;7731;50.720;6.912;2023-08-31T13:02:26;21.90;38.20
15257;DHT22;7731;50.720;6.912;2023-08-31T13:04:57;22.10;1.00
15257;DHT22;7731;50.720;6.912;2023-08-31T13:07:30;22.00;1.00
15257;DHT22;7731;50.720;6.912;2023-08-31T13:10:00;22.20;1.00
15257;DHT22;7731;50.720;6.912;2023-08-31T13:12:34;22.40;93.40
15257;DHT22;7731;50.720;6.912;2023-08-31T13:15:07;22.70;1.00
15257;DHT22;7731;50.720;6.912;2023-08-31T13:17:39;23.00;1.00
15257;DHT22;7731;50.720;6.912;2023-08-31T13:20:11;23.40;1.00
15257;DHT22;7731;50.720;6.912;2023-08-31T13:22:44;23.20;12.80
15257;DHT22;7731;50.720;6.912;2023-08-31T13:25:14;23.40;99.90
15257;DHT22;7731;50.720;6.912;2023-08-31T13:27:45;23.80;1.00
15257;DHT22;7731;50.720;6.912;2023-08-31T13:30:15;24.20;1.00
15257;DHT22;7731;50.720;6.912;2023-08-31T13:32:46;24.60;1.00
15257;DHT22;7731;50.720;6.912;2023-08-31T13:35:17;24.60;1.00
15257;DHT22;7731;50.720;6.912;2023-08-31T13:37:50;25.00;1.00
15257;DHT22;7731;50.720;6.912;2023-08-31T13:40:20;24.70;99.90
15257;DHT22;7731;50.720;6.912;2023-08-31T13:42:54;24.60;99.90
15257;DHT22;7731;50.720;6.912;2023-08-31T13:45:31;23.90;99.90
15257;DHT22;7731;50.720;6.912;2023-08-31T13:48:02;23.60;99.90
15257;DHT22;7731;50.720;6.912;2023-08-31T13:50:32;23.20;99.90
15257;DHT22;7731;50.720;6.912;2023-08-31T13:53:05;22.90;99.90
15257;DHT22;7731;50.720;6.912;2023-08-31T13:55:38;22.60;1.00
15257;DHT22;7731;50.720;6.912;2023-08-31T13:58:09;22.20;99.90
15257;DHT22;7731;50.720;6.912;2023-08-31T14:00:41;21.70;1.00
15257;DHT22;7731;50.720;6.912;2023-08-31T14:03:12;21.10;1.00
15257;DHT22;7731;50.720;6.912;2023-08-31T14:05:47;20.70;2.40
15257;DHT22;7731;50.720;6.912;2023-08-31T14:08:21;20.60;2.60
15257;DHT22;7731;50.720;6.912;2023-08-31T14:10:53;20.40;45.00
15257;DHT22;7731;50.720;6.912;2023-08-31T14:13:23;20.40;16.70
15257;DHT22;7731;50.720;6.912;2023-08-31T14:15:54;20.50;45.70
15257;DHT22;7731;50.720;6.912;2023-08-31T14:18:25;20.70;2.40
15257;DHT22;7731;50.720;6.912;2023-08-31T14:20:57;20.80;4.90
15257;DHT22;7731;50.720;6.912;2023-08-31T14:23:30;21.00;38.20
15257;DHT22;7731;50.720;6.912;2023-08-31T14:26:01;21.30;20.90
15257;DHT22;7731;50.720;6.912;2023-08-31T14:28:32;21.70;1.00
15257;DHT22;7731;50.720;6.912;2023-08-31T14:31:04;22.20;1.00
15257;DHT22;7731;50.720;6.912;2023-08-31T14:33:35;22.80;1.00
15257;DHT22;7731;50.720;6.912;2023-08-31T14:36:06;22.80;99.90
15257;DHT22;7731;50.720;6.912;2023-08-31T14:38:39;22.60;1.00
15257;DHT22;7731;50.720;6.912;2023-08-31T14:41:09;22.30;99.90
15257;DHT22;7731;50.720;6.912;2023-08-31T14:43:40;22.30;99.90
15257;DHT22;7731;50.720;6.912;2023-08-31T14:46:10;21.90;1.00
15257;DHT22;7731;50.720;6.912;2023-08-31T14:48:40;21.80;1.00
15257;DHT22;7731;50.720;6.912;2023-08-31T14:51:10;21.80;99.90
15257;DHT22;7731;50.720;6.912;2023-08-31T14:53:44;22.10;1.00
15257;DHT22;7731;50.720;6.912;2023-08-31T14:56:14;22.30;99.90
15257;DHT22;7731;50.720;6.912;2023-08-31T14:58:45;22.30;99.90
15257;DHT22;7731;50.720;6.912;2023-08-31T15:01:15;22.20;99.90
15257;DHT22;7731;50.720;6.912;2023-08-31T15:03:46;22.00;99.90
15257;DHT22;7731;50.720;6.912;2023-08-31T15:06:16;21.80;99.90
15257;DHT22;7731;50.720;6.912;2023-08-31T15:08:50;21.70;99.90
15257;DHT22;7731;50.720;6.912;2023-08-31T15:11:22;21.60;1.00
15257;DHT22;7731;50.720;6.912;2023-08-31T15:13:53;21.30;1.00
15257;DHT22;7731;50.720;6.912;2023-08-31T15:16:24;21.20;99.90
15257;DHT22;7731;50.720;6.912;2023-08-31T15:18:55;21.10;99.90
15257;DHT22;7731;50.720;6.912;2023-08-31T15:21:25;21.10;1.00
15257;DHT22;7731;50.720;6.912;2023-08-31T15:23:58;21.10;99.90
15257;DHT22;7731;50.720;6.912;2023-08-31T15:26:29;21.10;99.90
15257;DHT22;7731;50.720;6.912;2023-08-31T15:29:00;21.20;99.90
15257;DHT22;7731;50.720;6.912;2023-08-31T15:31:32;21.40;5.70
15257;DHT22;7731;50.720;6.912;2023-08-31T15:34:03;21.60;1.00
15257;DHT22;7731;50.720;6.912;2023-08-31T15:36:33;21.70;99.90
15257;DHT22;7731;50.720;6.912;2023-08-31T15:39:06;21.80;1.00
15257;DHT22;7731;50.720;6.912;2023-08-31T15:41:40;21.90;99.90
15257;DHT22;7731;50.720;6.912;2023-08-31T15:44:13;22.00;1.00
15257;DHT22;7731;50.720;6.912;2023-08-31T15:46:44;21.90;1.00
15257;DHT22;7731;50.720;6.912;2023-08-31T15:49:17;21.90;1.00
15257;DHT22;7731;50.720;6.912;2023-08-31T15:51:47;21.90;99.90
15257;DHT22;7731;50.720;6.912;2023-08-31T15:54:20;21.90;99.90
15257;DHT22;7731;50.720;6.912;2023-08-31T15:56:50;22.00;1.00
15257;DHT22;7731;50.720;6.912;2023-08-31T15:59:21;21.90;1.00
15257;DHT22;7731;50.720;6.912;2023-08-31T16:01:51;21.80;1.00
15257;DHT22;7731;50.720;6.912;2023-08-31T16:04:21;21.90;1.00
15257;DHT22;7731;50.720;6.912;2023-08-31T16:06:52;21.70;1.00
15257;DHT22;7731;50.720;6.912;2023-08-31T16:09:25;21.50;1.00
15257;DHT22;7731;50.720;6.912;2023-08-31T16:11:55;21.50;1.00
15257;DHT22;7731;50.720;6.912;2023-08-31T16:14:25;21.50;99.90
15257;DHT22;7731;50.720;6.912;2023-08-31T16:16:56;21.40;99.90
15257;DHT22;7731;50.720;6.912;2023-08-31T16:19:29;21.30;99.90
15257;DHT22;7731;50.720;6.912;2023-08-31T16:21:59;21.20;1.00